Flight Track Log - Related Links

Times and Time Zones

All times are in EDT time to prevent confusion due to time zone crossing. See the CSN379 flight status page for this flight to view local times or setup timezone preferences in your user account.

Time Position Orientation Groundspeed Altitude Reporting Facility
EDT Latitude Longitude Course Direction KTS MPH feet Rate Location/Type
Sat 08:00:52 AM 31.8794 124.1879 71° East  Level Estimated
Sat 08:01:52 AM 31.9153 124.3094 71° East  Level Estimated
Sat 08:02:52 AM 31.9510 124.4311 71° East  Level Estimated
Sat 08:03:52 AM 31.9867 124.5528 71° East  Level Estimated
Sat 08:04:52 AM 32.0222 124.6747 71° East  Level Estimated
Sat 08:05:52 AM 32.0577 124.7967 71° East  Level Estimated
Sat 08:06:52 AM 32.0930 124.9187 71° East  Level Estimated
Sat 08:07:52 AM 32.1282 125.0408 71° East  Level Estimated
Sat 08:08:52 AM 32.1632 125.1631 71° East  Level Estimated
Sat 08:09:52 AM 32.1982 125.2854 71° East  Level Estimated
Sat 08:10:52 AM 32.2330 125.4078 71° East  Level Estimated
Sat 08:11:52 AM 32.2677 125.5303 72° East  Level Estimated
Sat 08:12:52 AM 32.3023 125.6529 72° East  Level Estimated
Sat 08:13:52 AM 32.3368 125.7757 72° East  Level Estimated
Sat 08:14:52 AM 32.3712 125.8985 72° East  Level Estimated
Sat 08:15:52 AM 32.4054 126.0213 72° East  Level Estimated
Sat 08:16:52 AM 32.4395 126.1443 72° East  Level Estimated
Sat 08:17:52 AM 32.4735 126.2674 72° East  Level Estimated
Sat 08:18:52 AM 32.5074 126.3906 72° East  Level Estimated
Sat 08:19:52 AM 32.5412 126.5138 72° East  Level Estimated
Sat 08:20:52 AM 32.5748 126.6372 72° East  Level Estimated
Sat 08:21:52 AM 32.6083 126.7606 72° East  Level Estimated
Sat 08:22:52 AM 32.6417 126.8841 72° East  Level Estimated
Sat 08:23:52 AM 32.6750 127.0078 72° East  Level Estimated
Sat 08:24:52 AM 32.7082 127.1315 72° East  Level Estimated
Sat 08:25:52 AM 32.7412 127.2553 72° East  Level Estimated
Sat 08:26:52 AM 32.7741 127.3792 73° East  Level Estimated
Sat 08:27:52 AM 32.8069 127.5032 73° East  Level Estimated
Sat 08:28:52 AM 32.8396 127.6273 73° East  Level Estimated
Sat 08:29:52 AM 32.8722 127.7515 73° East  Level Estimated
Sat 08:30:52 AM 32.9046 127.8758 73° East  Level Estimated
Sat 08:31:52 AM 32.9369 128.0001 73° East  Level Estimated
Sat 08:32:52 AM 32.9691 128.1246 73° East  Level Estimated
Sat 08:33:52 AM 33.0011 128.2491 73° East  Level Estimated
Sat 08:34:52 AM 33.0331 128.3737 73° East  Level Estimated
Sat 08:35:52 AM 33.0649 128.4985 73° East  Level Estimated
Sat 08:36:52 AM 33.0965 128.6233 73° East  Level Estimated
Sat 08:37:52 AM 33.1281 128.7482 73° East  Level Estimated
Sat 08:38:52 AM 33.1595 128.8732 73° East  Level Estimated
Sat 08:39:52 AM 33.1908 128.9983 73° East  Level Estimated
Sat 08:40:52 AM 33.2220 129.1234 73° East  Level Estimated
Sat 08:41:52 AM 33.2531 129.2487 74° East  Level Estimated
Sat 08:42:52 AM 33.2840 129.3741 74° East  Level Estimated
Sat 08:43:52 AM 33.3148 129.4995 74° East  Level Estimated
Sat 08:44:52 AM 33.3455 129.6250 74° East  Level Estimated
Sat 08:45:52 AM 33.3761 129.7506 74° East  Level Estimated
Sat 08:46:52 AM 33.4065 129.8763 74° East  Level Estimated
Sat 08:47:52 AM 33.4368 130.0021 74° East  Level Estimated
Sat 08:48:52 AM 33.4670 130.1280 74° East  Level Estimated
Sat 08:49:52 AM 33.4970 130.2540 74° East  Level Estimated
Sat 08:50:52 AM 33.5269 130.3800 74° East  Level Estimated
Sat 08:51:52 AM 33.5567 130.5062 74° East  Level Estimated
Sat 08:52:52 AM 33.5864 130.6324 74° East  Level Estimated
Sat 08:53:52 AM 33.6159 130.7587 74° East  Level Estimated
Sat 08:54:52 AM 33.6453 130.8851 74° East  Level Estimated
Sat 08:55:52 AM 33.6746 131.0116 74° East  Level Estimated
Sat 08:56:52 AM 33.7038 131.1382 75° East  Level Estimated
Sat 08:57:52 AM 33.7328 131.2648 75° East  Level Estimated
Sat 08:58:52 AM 33.7617 131.3916 75° East  Level Estimated
Sat 08:59:52 AM 33.7904 131.5184 75° East  Level Estimated
Sat 09:00:52 AM 33.8191 131.6453 75° East  Level Estimated
Sat 09:01:52 AM 33.8476 131.7723 75° East  Level Estimated
Sat 09:02:52 AM 33.8759 131.8994 75° East  Level Estimated
Sat 09:03:52 AM 33.9042 132.0266 75° East  Level Estimated
Sat 09:04:52 AM 33.9323 132.1538 75° East  Level Estimated
Sat 09:05:52 AM 33.9603 132.2812 75° East  Level Estimated
Sat 09:06:52 AM 33.9881 132.4086 75° East  Level Estimated
Sat 09:07:52 AM 34.0158 132.5361 75° East  Level Estimated
Sat 09:08:52 AM 34.0434 132.6637 75° East  Level Estimated
Sat 09:09:52 AM 34.0709 132.7913 75° East  Level Estimated
Sat 09:10:52 AM 34.0982 132.9191 76° East  Level Estimated
Sat 09:11:52 AM 34.1254 133.0469 76° East  Level Estimated
Sat 09:12:52 AM 34.1524 133.1748 76° East  Level Estimated
Sat 09:13:52 AM 34.1794 133.3028 76° East  Level Estimated
Sat 09:14:52 AM 34.2062 133.4309 76° East  Level Estimated
Sat 09:15:52 AM 34.2328 133.5591 76° East  Level Estimated
Sat 09:16:52 AM 34.2593 133.6873 76° East  Level Estimated
Sat 09:17:52 AM 34.2857 133.8156 76° East  Level Estimated
Sat 09:18:52 AM 34.3120 133.9440 76° East  Level Estimated
Sat 09:19:52 AM 34.3381 134.0725 76° East  Level Estimated
Sat 09:20:52 AM 34.3641 134.2011 76° East  Level Estimated
Sat 09:21:52 AM 34.3900 134.3297 76° East  Level Estimated
Sat 09:22:52 AM 34.4157 134.4584 76° East  Level Estimated
Sat 09:23:52 AM 34.4413 134.5872 76° East  Level Estimated
Sat 09:24:52 AM 34.4667 134.7161 77° East  Level Estimated
Sat 09:25:52 AM 34.4920 134.8451 77° East  Level Estimated
Sat 09:26:52 AM 34.5172 134.9741 77° East  Level Estimated
Sat 09:27:52 AM 34.5423 135.1032 77° East  Level Estimated
Sat 09:28:52 AM 34.5672 135.2324 77° East  Level Estimated
Sat 09:29:52 AM 34.5919 135.3617 77° East  Level Estimated
Sat 09:30:52 AM 34.6166 135.4910 77° East  Level Estimated
Sat 09:31:52 AM 34.6411 135.6205 77° East  Level Estimated
Sat 09:32:52 AM 34.6654 135.7500 77° East  Level Estimated
Sat 09:33:52 AM 34.6897 135.8795 77° East  Level Estimated
Sat 09:34:52 AM 34.7137 136.0092 77° East  Level Estimated
Sat 09:35:52 AM 34.7377 136.1389 77° East  Level Estimated
Sat 09:36:52 AM 34.7615 136.2687 77° East  Level Estimated
Sat 09:37:52 AM 34.7852 136.3986 78° East  Level Estimated
Sat 09:38:52 AM 34.8087 136.5285 78° East  Level Estimated
Sat 09:39:52 AM 34.8321 136.6586 78° East  Level Estimated
Sat 09:40:52 AM 34.8554 136.7887 78° East  Level Estimated
Sat 09:41:52 AM 34.8785 136.9188 258° West  Level Estimated
Sat 09:42:52 AM 34.8554 136.7887 78° East  Level Estimated
Sat 09:43:52 AM 34.8785 136.9188 258° West  Level Estimated
Sat 09:44:52 AM 34.8554 136.7887 78° East  Level Estimated
Sat 09:45:52 AM 34.8785 136.9188 258° West  Level Estimated
Sat 09:46:52 AM 34.8554 136.7887 78° East  Level Estimated
Sat 09:47:52 AM 34.8785 136.9188 78° East  Level Estimated

Login

Don't have an account? Register now (free) for customized features, flight alerts, and more!